Terminal Aerodrome Forecast
Issued by NWS Sioux Falls, SD

Home | Current Version | Previous Version | Graphics & Text | Print | Product List | Glossary On
Versions: 1 2 3 4 5 6 7 8 9 10 11 12 13 14 15 16 17 18 19 20 21 22
000
FTUS43 KFSD 062325
TAFHON
TAF
KHON 062325Z 0700/0724 35014G20KT 5SM FU FEW040
     FM070100 01009KT 6SM FU SKC
     FM070300 01004KT 4SM FU SKC
     FM071000 VRB03KT 2SM FU BR SKC
     FM071300 05005KT 4SM FU SKC
     FM071700 11006KT 6SM FU SCT200=

USA.gov is the U.S. government's official web portal to all federal, state and local government web resources and services.